createdAt,value
2024-02-19T00:00:01.164Z,99752.80
2024-02-19T00:02:27.686Z,99749.20
2024-02-19T00:04:54.287Z,99749.60
2024-02-19T00:07:21.979Z,99741.80
2024-02-19T00:09:48.604Z,99739.00
2024-02-19T00:12:15.363Z,99729.20
2024-02-19T00:14:41.809Z,99730.60
2024-02-19T00:17:09.197Z,99726.00
2024-02-19T00:19:36.262Z,99719.40
2024-02-19T00:22:02.944Z,99707.60
2024-02-19T00:24:29.608Z,99703.00
2024-02-19T00:26:56.179Z,99692.00
2024-02-19T00:29:22.726Z,99677.60
2024-02-19T00:31:49.350Z,99688.80
2024-02-19T00:34:16.190Z,99680.80
2024-02-19T00:39:09.152Z,99676.80
2024-02-19T00:41:37.833Z,99661.40
2024-02-19T00:44:04.488Z,99661.00
2024-02-19T00:46:31.156Z,99652.80
2024-02-19T00:48:57.782Z,99653.40
2024-02-19T00:51:24.286Z,99651.00
2024-02-19T00:53:50.778Z,99648.40
2024-02-19T00:56:17.542Z,99654.40
2024-02-19T00:58:44.026Z,99650.60
2024-02-19T01:01:10.565Z,99646.40
2024-02-19T01:03:37.153Z,99642.40
2024-02-19T01:06:03.853Z,99644.60
2024-02-19T01:08:30.406Z,99640.20
2024-02-19T01:10:57.026Z,99638.00
2024-02-19T01:13:23.564Z,99621.60
2024-02-19T01:15:50.115Z,99612.20
2024-02-19T01:18:18.023Z,99596.60
2024-02-19T01:20:44.578Z,99589.40
2024-02-19T01:23:11.070Z,99585.80
2024-02-19T01:25:37.937Z,99593.80
2024-02-19T01:28:05.207Z,99592.60
2024-02-19T01:30:32.616Z,99586.60
2024-02-19T01:33:01.103Z,99580.20
2024-02-19T01:35:27.658Z,99563.60
2024-02-19T01:37:54.133Z,99547.00
2024-02-19T01:40:20.718Z,99543.00
2024-02-19T01:42:47.942Z,99549.00
2024-02-19T01:45:27.112Z,99565.20
2024-02-19T01:47:59.449Z,99563.00
2024-02-19T01:50:31.123Z,99550.80
2024-02-19T01:53:02.071Z,99548.80
2024-02-19T01:55:29.583Z,99538.40
2024-02-19T01:57:58.795Z,99525.20
2024-02-19T02:00:26.299Z,99526.20
2024-02-19T02:02:53.063Z,99519.60
2024-02-19T02:05:19.552Z,99519.40
2024-02-19T02:07:46.161Z,99517.80
2024-02-19T02:10:12.869Z,99510.00
2024-02-19T02:12:39.450Z,99499.20
2024-02-19T02:15:06.520Z,99497.00
2024-02-19T02:17:33.913Z,99491.80
2024-02-19T02:20:00.818Z,99495.40
2024-02-19T02:22:27.469Z,99489.00
2024-02-19T02:24:54.015Z,99488.80
2024-02-19T02:27:20.563Z,99475.40
2024-02-19T02:29:47.103Z,99466.20
2024-02-19T02:32:13.624Z,99467.80
2024-02-19T02:34:40.139Z,99462.40
2024-02-19T02:37:06.768Z,99463.80
2024-02-19T02:39:33.546Z,99454.80
2024-02-19T02:42:00.092Z,99444.00
2024-02-19T02:44:26.600Z,99434.80
2024-02-19T02:46:53.188Z,99429.80
2024-02-19T02:49:19.724Z,99421.80
2024-02-19T02:51:46.308Z,99404.60
2024-02-19T02:54:12.809Z,99402.40
2024-02-19T02:56:39.244Z,99406.20
2024-02-19T02:59:05.776Z,99414.60
2024-02-19T03:01:33.436Z,99415.20
2024-02-19T03:04:00.310Z,99408.80
2024-02-19T03:06:27.251Z,99409.40
2024-02-19T03:08:53.944Z,99404.80
2024-02-19T03:11:20.587Z,99405.00
2024-02-19T03:13:47.476Z,99395.60
2024-02-19T03:16:16.772Z,99392.40
2024-02-19T03:18:45.186Z,99384.80
2024-02-19T03:21:16.625Z,99375.60
2024-02-19T03:23:45.122Z,99369.00
2024-02-19T03:26:11.828Z,99354.40
2024-02-19T03:28:38.268Z,99354.40
2024-02-19T03:31:04.960Z,99345.20
2024-02-19T03:33:31.561Z,99341.40
2024-02-19T03:35:58.074Z,99347.20
2024-02-19T03:38:25.707Z,99363.40
2024-02-19T03:40:52.174Z,99339.40
2024-02-19T03:43:18.792Z,99345.40
2024-02-19T03:45:45.300Z,99339.00
2024-02-19T03:48:11.919Z,99331.20
2024-02-19T03:50:38.424Z,99326.00
2024-02-19T03:53:05.035Z,99324.20
2024-02-19T03:55:31.687Z,99331.00
2024-02-19T03:57:58.341Z,99332.40
2024-02-19T04:00:24.953Z,99325.40
2024-02-19T04:02:51.459Z,99322.00
2024-02-19T04:05:17.959Z,99321.80
2024-02-19T04:07:45.416Z,99308.60
2024-02-19T04:10:12.059Z,99291.60
2024-02-19T04:12:39.571Z,99294.00
2024-02-19T04:15:06.853Z,99296.80
2024-02-19T04:17:36.105Z,99292.00
2024-02-19T04:20:05.324Z,99301.00
2024-02-19T04:22:31.853Z,99281.40
2024-02-19T04:24:58.443Z,99277.00
2024-02-19T04:27:24.916Z,99284.40
2024-02-19T04:29:51.388Z,99284.80
2024-02-19T04:32:17.891Z,99282.80
2024-02-19T04:34:45.397Z,99269.20
2024-02-19T04:37:12.049Z,99268.20
2024-02-19T04:39:38.639Z,99265.80
2024-02-19T04:42:05.789Z,99258.60
2024-02-19T04:44:32.572Z,99255.40
2024-02-19T04:46:59.100Z,99255.80
2024-02-19T04:49:28.580Z,99253.60
2024-02-19T04:51:55.125Z,99246.80
2024-02-19T04:54:22.025Z,99243.80
2024-02-19T04:56:48.604Z,99235.80
2024-02-19T04:59:15.213Z,99241.20
2024-02-19T05:01:41.736Z,99239.00
2024-02-19T05:04:08.312Z,99234.80
2024-02-19T05:06:35.408Z,99227.60
2024-02-19T05:09:01.939Z,99223.60
2024-02-19T05:11:28.488Z,99221.40
2024-02-19T05:13:55.065Z,99211.40
2024-02-19T05:16:21.687Z,99216.00
2024-02-19T05:18:48.329Z,99210.20
2024-02-19T05:21:15.332Z,99207.40
2024-02-19T05:23:41.836Z,99200.80
2024-02-19T05:26:09.886Z,99207.60
2024-02-19T05:28:37.848Z,99205.40
2024-02-19T05:31:04.659Z,99203.00
2024-02-19T05:33:31.205Z,99201.80
2024-02-19T05:35:57.826Z,99203.80
2024-02-19T05:38:24.721Z,99196.60
2024-02-19T05:40:51.183Z,99196.80
2024-02-19T05:43:17.717Z,99193.20
2024-02-19T05:48:10.892Z,99185.40
2024-02-19T05:50:37.514Z,99183.00
2024-02-19T05:53:04.153Z,99181.60
2024-02-19T05:55:30.697Z,99178.40
2024-02-19T05:57:57.621Z,99174.80
2024-02-19T06:00:24.140Z,99170.80
2024-02-19T06:02:50.785Z,99167.60
2024-02-19T06:05:17.524Z,99167.20
2024-02-19T06:07:45.644Z,99169.80
2024-02-19T06:10:12.275Z,99165.60
2024-02-19T06:12:38.899Z,99164.20
2024-02-19T06:15:05.943Z,99157.60
2024-02-19T06:17:32.551Z,99159.60
2024-02-19T06:19:59.297Z,99155.80
2024-02-19T06:22:25.892Z,99151.40
2024-02-19T06:24:52.471Z,99149.20
2024-02-19T06:27:20.769Z,99148.40
2024-02-19T06:29:48.338Z,99144.40
2024-02-19T06:32:14.897Z,99146.40
2024-02-19T06:37:13.014Z,99143.60
2024-02-19T06:39:41.399Z,99147.00
2024-02-19T06:42:08.640Z,99146.80
2024-02-19T06:44:35.122Z,99141.20
2024-02-19T06:47:01.595Z,99143.40
2024-02-19T06:49:36.998Z,99140.20
2024-02-19T06:52:04.058Z,99137.60
2024-02-19T06:54:31.982Z,99139.40
2024-02-19T06:56:59.523Z,99138.80
2024-02-19T06:59:25.983Z,99135.80
2024-02-19T07:02:17.558Z,99140.20
2024-02-19T07:07:10.300Z,99134.00
2024-02-19T07:12:17.212Z,99133.20
2024-02-19T07:17:12.739Z,99130.60
2024-02-19T07:19:39.355Z,99124.40
2024-02-19T07:22:15.011Z,99127.20
2024-02-19T07:24:41.590Z,99124.80
2024-02-19T07:27:08.285Z,99120.60
2024-02-19T07:29:34.808Z,99116.60
2024-02-19T07:32:01.275Z,99116.60
2024-02-19T07:34:42.415Z,99114.60
2024-02-19T07:37:10.112Z,99116.00
2024-02-19T07:39:40.385Z,99104.80
2024-02-19T07:42:07.098Z,99107.40
2024-02-19T07:44:46.825Z,99104.20
2024-02-19T07:47:13.293Z,99098.20
2024-02-19T07:49:40.077Z,99095.00
2024-02-19T07:52:07.335Z,99084.60
2024-02-19T07:54:33.970Z,99085.20
2024-02-19T07:57:25.767Z,99079.60
2024-02-19T07:59:52.309Z,99079.20
2024-02-19T08:02:19.095Z,99075.40
2024-02-19T08:04:45.798Z,99068.80
2024-02-19T08:07:38.032Z,99062.00
2024-02-19T08:10:05.659Z,99060.00
2024-02-19T08:12:39.291Z,99058.80
2024-02-19T08:15:11.536Z,99060.20
2024-02-19T08:17:38.117Z,99066.20
2024-02-19T08:20:05.575Z,99060.60
2024-02-19T08:22:32.235Z,99055.40
2024-02-19T08:24:59.151Z,99049.80
2024-02-19T08:27:46.300Z,99045.20
2024-02-19T08:30:13.143Z,99037.60
2024-02-19T08:32:39.682Z,99033.40
2024-02-19T08:35:06.835Z,99036.60
2024-02-19T08:37:46.101Z,99032.00
2024-02-19T08:40:12.782Z,99024.00
2024-02-19T08:42:39.387Z,99029.60
2024-02-19T08:45:06.892Z,99021.20
2024-02-19T08:47:33.568Z,99018.20
2024-02-19T08:50:25.003Z,99019.00
2024-02-19T08:52:51.651Z,99019.00
2024-02-19T08:55:18.155Z,99010.40
2024-02-19T09:00:15.088Z,99016.20
2024-02-19T09:02:43.501Z,99016.00
2024-02-19T09:05:13.307Z,99011.40
2024-02-19T09:07:39.972Z,99008.60
2024-02-19T09:10:07.621Z,99006.40
2024-02-19T09:12:46.300Z,99009.00
2024-02-19T09:15:12.819Z,99000.20
2024-02-19T09:17:39.429Z,99001.80
2024-02-19T09:20:07.887Z,98999.00
2024-02-19T09:22:47.286Z,98989.80
2024-02-19T09:25:14.767Z,98995.20
2024-02-19T09:27:41.363Z,98995.60
2024-02-19T09:30:09.297Z,98996.80
2024-02-19T09:32:35.897Z,99008.20
2024-02-19T09:35:27.920Z,99000.60
2024-02-19T09:37:54.672Z,98996.80
2024-02-19T09:40:26.641Z,98993.00
2024-02-19T09:43:18.711Z,98985.40
2024-02-19T09:45:46.242Z,98987.20
2024-02-19T09:48:14.199Z,98987.60
2024-02-19T09:53:20.189Z,98982.00
2024-02-19T09:55:47.233Z,98981.80
2024-02-19T09:58:14.500Z,98975.40
2024-02-19T10:00:41.266Z,98971.00
2024-02-19T10:03:33.290Z,98974.80
2024-02-19T10:05:59.872Z,98970.20
2024-02-19T10:08:26.478Z,98966.20
2024-02-19T10:10:57.393Z,98965.00
2024-02-19T10:13:28.326Z,98964.40
2024-02-19T10:15:54.888Z,98956.60
2024-02-19T10:18:22.222Z,98957.80
2024-02-19T10:20:53.118Z,98955.40
2024-02-19T10:23:39.550Z,98954.80
2024-02-19T10:26:06.099Z,98950.20
2024-02-19T10:28:32.781Z,98946.80
2024-02-19T10:30:59.374Z,98942.20
2024-02-19T10:33:25.910Z,98945.80
2024-02-19T10:36:20.805Z,98939.20
2024-02-19T10:38:47.626Z,98940.20
2024-02-19T10:41:14.987Z,98934.60
2024-02-19T10:46:21.973Z,98937.20
2024-02-19T10:48:51.433Z,98937.40
2024-02-19T10:51:21.026Z,98927.80
2024-02-19T10:54:05.360Z,98920.80
2024-02-19T10:56:40.871Z,98920.80
2024-02-19T10:59:12.368Z,98911.20
2024-02-19T11:04:24.184Z,98910.60
2024-02-19T11:06:57.482Z,98904.80
2024-02-19T11:09:47.438Z,98901.00
2024-02-19T11:12:15.137Z,98895.60
2024-02-19T11:14:43.596Z,98897.40
2024-02-19T11:17:10.805Z,98894.60
2024-02-19T11:22:23.618Z,98884.00
2024-02-19T11:24:52.069Z,98885.40
2024-02-19T11:27:19.027Z,98873.60
2024-02-19T11:29:48.249Z,98872.40
2024-02-19T11:32:22.277Z,98873.00
2024-02-19T11:34:51.734Z,98866.20
2024-02-19T11:37:19.632Z,98866.20
2024-02-19T11:39:46.575Z,98862.40
2024-02-19T11:42:30.826Z,98860.40
2024-02-19T11:44:59.912Z,98863.60
2024-02-19T11:47:27.081Z,98854.00
2024-02-19T11:49:53.677Z,98856.60
2024-02-19T11:52:20.454Z,98853.80
2024-02-19T11:55:12.105Z,98855.40
2024-02-19T11:57:38.595Z,98854.60
2024-02-19T12:00:08.461Z,98855.40
2024-02-19T12:02:46.512Z,98846.00
2024-02-19T12:05:13.271Z,98842.80
2024-02-19T12:07:40.665Z,98839.00
2024-02-19T12:10:11.120Z,98838.00
2024-02-19T12:15:18.015Z,98835.60
2024-02-19T12:20:12.722Z,98815.20
2024-02-19T12:22:41.634Z,98816.00
2024-02-19T12:25:17.238Z,98802.80
2024-02-19T12:27:43.860Z,98803.00
2024-02-19T12:30:11.140Z,98801.20
2024-02-19T12:32:38.210Z,98791.80
2024-02-19T12:35:06.747Z,98792.80
2024-02-19T12:37:47.620Z,98789.60
2024-02-19T12:40:14.954Z,98788.00
2024-02-19T12:42:42.230Z,98782.60
2024-02-19T12:45:10.028Z,98776.80
2024-02-19T12:47:47.968Z,98775.40
2024-02-19T12:50:16.640Z,98773.60
2024-02-19T12:52:43.692Z,98777.00
2024-02-19T12:55:10.863Z,98774.00
2024-02-19T12:57:39.003Z,98776.40
2024-02-19T13:00:12.150Z,98772.40
2024-02-19T13:02:38.958Z,98765.20
2024-02-19T13:05:06.180Z,98762.80
2024-02-19T13:07:32.860Z,98762.80
2024-02-19T13:09:59.973Z,98758.20
2024-02-19T13:12:35.582Z,98756.20
2024-02-19T13:15:02.132Z,98759.40
2024-02-19T13:17:36.020Z,98759.40
2024-02-19T13:20:07.772Z,98755.00
2024-02-19T13:22:43.645Z,98751.40
2024-02-19T13:25:10.225Z,98751.40
2024-02-19T13:27:36.879Z,98751.80
2024-02-19T13:30:03.872Z,98750.20
2024-02-19T13:32:31.063Z,98748.00
2024-02-19T13:35:23.299Z,98742.60
2024-02-19T13:37:51.406Z,98743.00
2024-02-19T13:40:19.224Z,98739.80
2024-02-19T13:45:24.619Z,98744.40
2024-02-19T13:47:59.826Z,98739.20
2024-02-19T13:50:26.958Z,98737.20
2024-02-19T13:53:11.987Z,98742.60
2024-02-19T13:55:38.600Z,98737.20
2024-02-19T13:58:05.295Z,98737.60
2024-02-19T14:00:32.486Z,98738.20
2024-02-19T14:02:58.932Z,98739.40
2024-02-19T14:05:48.493Z,98737.00
2024-02-19T14:08:15.942Z,98735.80
2024-02-19T14:10:42.894Z,98735.80
2024-02-19T14:15:50.376Z,98741.60
2024-02-19T14:18:17.330Z,98736.60
2024-02-19T14:20:44.017Z,98738.20
2024-02-19T14:23:10.538Z,98741.80
2024-02-19T14:25:47.894Z,98736.80
2024-02-19T14:28:14.560Z,98741.60
2024-02-19T14:30:41.076Z,98740.00
2024-02-19T14:33:07.653Z,98749.40
2024-02-19T14:35:34.465Z,98756.60
2024-02-19T14:38:03.165Z,98758.40
2024-02-19T14:40:29.763Z,98759.80
2024-02-19T14:42:56.425Z,98767.80
2024-02-19T14:45:23.386Z,98767.00
2024-02-19T14:47:50.381Z,98769.60
2024-02-19T14:50:17.401Z,98766.60
2024-02-19T14:52:44.592Z,98772.80
2024-02-19T14:55:12.784Z,98774.60
2024-02-19T14:57:46.146Z,98772.80
2024-02-19T15:00:21.772Z,98776.60
2024-02-19T15:02:50.665Z,98784.40
2024-02-19T15:05:18.500Z,98781.80
2024-02-19T15:07:47.210Z,98781.40
2024-02-19T15:10:16.752Z,98780.20
2024-02-19T15:12:44.383Z,98789.80
2024-02-19T15:15:14.213Z,98796.80
2024-02-19T15:17:40.884Z,98790.00
2024-02-19T15:20:10.253Z,98795.00
2024-02-19T15:22:36.987Z,98798.20
2024-02-19T15:25:05.055Z,98794.60
2024-02-19T15:27:32.698Z,98804.00
2024-02-19T15:30:00.256Z,98804.80
2024-02-19T15:32:27.062Z,98801.80
2024-02-19T15:34:54.267Z,98803.00
2024-02-19T15:37:21.730Z,98805.20
2024-02-19T15:39:48.565Z,98807.60
2024-02-19T15:42:15.093Z,98806.60
2024-02-19T15:44:41.593Z,98813.20
2024-02-19T15:47:08.115Z,98814.00
2024-02-19T15:49:34.721Z,98812.80
2024-02-19T15:52:01.498Z,98817.80
2024-02-19T15:54:30.135Z,98815.60
2024-02-19T15:56:56.637Z,98814.80
2024-02-19T15:59:23.080Z,98815.80
2024-02-19T16:01:50.302Z,98813.60
2024-02-19T16:04:19.877Z,98817.40
2024-02-19T16:06:47.282Z,98821.60
2024-02-19T16:09:14.472Z,98820.00
2024-02-19T16:11:41.121Z,98815.20
2024-02-19T16:14:07.694Z,98821.80
2024-02-19T16:16:34.367Z,98825.00
2024-02-19T16:19:02.711Z,98822.60
2024-02-19T16:21:29.488Z,98832.00
2024-02-19T16:23:56.599Z,98829.40
2024-02-19T16:26:23.143Z,98825.20
2024-02-19T16:28:51.099Z,98833.60
2024-02-19T16:31:19.505Z,98826.00
2024-02-19T16:33:47.427Z,98834.00
2024-02-19T16:36:14.061Z,98831.20
2024-02-19T16:38:42.276Z,98837.60
2024-02-19T16:41:09.346Z,98840.60
2024-02-19T16:43:36.257Z,98847.20
2024-02-19T16:46:05.771Z,98852.80
2024-02-19T16:48:39.591Z,98857.00
2024-02-19T16:51:06.723Z,98864.00
2024-02-19T16:53:35.134Z,98858.00
2024-02-19T16:56:02.537Z,98864.20
2024-02-19T16:58:33.118Z,98866.00
2024-02-19T17:01:00.410Z,98871.80
2024-02-19T17:03:27.626Z,98876.80
2024-02-19T17:05:55.497Z,98867.20
2024-02-19T17:08:29.809Z,98875.40
2024-02-19T17:10:57.328Z,98874.80
2024-02-19T17:13:24.593Z,98888.20
2024-02-19T17:15:51.251Z,98891.20
2024-02-19T17:18:18.292Z,98886.80
2024-02-19T17:20:45.238Z,98895.80
2024-02-19T17:23:16.997Z,98898.00
2024-02-19T17:25:43.796Z,98894.60
2024-02-19T17:28:10.598Z,98907.80
2024-02-19T17:30:37.615Z,98905.20
2024-02-19T17:33:04.324Z,98897.00
2024-02-19T17:35:31.402Z,98897.00
2024-02-19T17:37:58.037Z,98903.20
2024-02-19T17:40:24.801Z,98910.40
2024-02-19T17:42:52.269Z,98906.40
2024-02-19T17:45:18.949Z,98911.60
2024-02-19T17:47:47.476Z,98914.20
2024-02-19T17:50:14.111Z,98915.20
2024-02-19T17:52:41.212Z,98913.60
2024-02-19T17:55:10.146Z,98913.80
2024-02-19T17:57:36.755Z,98919.00
2024-02-19T18:00:04.966Z,98916.40
2024-02-19T18:02:31.468Z,98922.60
2024-02-19T18:05:01.166Z,98919.80
2024-02-19T18:07:28.935Z,98926.00
2024-02-19T18:09:56.864Z,98929.00
2024-02-19T18:12:23.542Z,98933.60
2024-02-19T18:14:50.164Z,98935.80
2024-02-19T18:17:16.678Z,98934.00
2024-02-19T18:22:12.428Z,98941.00
2024-02-19T18:24:39.172Z,98937.80
2024-02-19T18:27:08.164Z,98933.80
2024-02-19T18:29:36.481Z,98943.80
2024-02-19T18:32:03.815Z,98943.80
2024-02-19T18:34:31.843Z,98949.60
2024-02-19T18:37:00.265Z,98946.00
2024-02-19T18:39:32.798Z,98951.00
2024-02-19T18:41:59.670Z,98953.80
2024-02-19T18:44:26.278Z,98953.60
2024-02-19T18:46:52.792Z,98961.80
2024-02-19T18:49:21.612Z,98954.20
2024-02-19T18:51:49.039Z,98968.80
2024-02-19T18:54:16.217Z,98967.40
2024-02-19T18:56:43.351Z,98960.20
2024-02-19T18:59:10.045Z,98961.40
2024-02-19T19:01:37.059Z,98962.60
2024-02-19T19:04:04.591Z,98966.20
2024-02-19T19:06:31.677Z,98966.60
2024-02-19T19:09:06.522Z,98967.60
2024-02-19T19:11:35.989Z,98970.80
2024-02-19T19:14:03.581Z,98970.40
2024-02-19T19:16:31.233Z,98970.60
2024-02-19T19:19:04.049Z,98969.80
2024-02-19T19:21:37.849Z,98975.60
2024-02-19T19:24:07.328Z,98979.20
2024-02-19T19:26:35.186Z,98976.20
2024-02-19T19:29:02.248Z,98980.00
2024-02-19T19:31:29.143Z,98988.00
2024-02-19T19:33:56.008Z,98986.20
2024-02-19T19:36:22.618Z,98994.80
2024-02-19T19:38:49.132Z,98993.20
2024-02-19T19:41:15.792Z,98991.20
2024-02-19T19:43:42.457Z,98990.20
2024-02-19T19:46:09.286Z,98997.20
2024-02-19T19:48:36.523Z,98994.40
2024-02-19T19:51:03.369Z,99000.00
2024-02-19T19:53:31.396Z,98997.20
2024-02-19T19:55:57.902Z,98997.20
2024-02-19T19:58:31.902Z,99011.20
2024-02-19T20:01:01.015Z,99000.80
2024-02-19T20:03:27.661Z,99012.00
2024-02-19T20:05:54.659Z,99007.60
2024-02-19T20:08:21.595Z,99010.80
2024-02-19T20:10:49.101Z,99008.20
2024-02-19T20:13:16.004Z,99019.40
2024-02-19T20:15:42.574Z,99022.40
2024-02-19T20:18:09.999Z,99021.00
2024-02-19T20:20:36.826Z,99019.60
2024-02-19T20:23:03.806Z,99016.80
2024-02-19T20:25:31.550Z,99018.60
2024-02-19T20:28:01.753Z,99026.20
2024-02-19T20:30:28.278Z,99025.20
2024-02-19T20:32:54.931Z,99029.60
2024-02-19T20:35:21.807Z,99034.20
2024-02-19T20:37:48.378Z,99030.80
2024-02-19T20:40:14.998Z,99036.40
2024-02-19T20:42:41.602Z,99040.00
2024-02-19T20:45:14.013Z,99037.80
2024-02-19T20:47:41.671Z,99038.80
2024-02-19T20:50:10.712Z,99043.60
2024-02-19T20:52:38.208Z,99045.00
2024-02-19T20:55:06.108Z,99052.60
2024-02-19T20:57:34.925Z,99046.60
2024-02-19T21:00:04.348Z,99051.00
2024-02-19T21:02:32.230Z,99050.00
2024-02-19T21:04:59.422Z,99053.00
2024-02-19T21:07:26.030Z,99056.60
2024-02-19T21:09:57.631Z,99057.40
2024-02-19T21:12:24.633Z,99050.80
2024-02-19T21:14:51.108Z,99055.20
2024-02-19T21:17:17.593Z,99058.40
2024-02-19T21:19:44.134Z,99061.40
2024-02-19T21:22:10.714Z,99054.00
2024-02-19T21:24:37.267Z,99063.20
2024-02-19T21:27:05.204Z,99062.80
2024-02-19T21:29:31.743Z,99066.00
2024-02-19T21:31:59.076Z,99067.00
2024-02-19T21:34:25.691Z,99069.60
2024-02-19T21:36:54.005Z,99062.80
2024-02-19T21:39:20.710Z,99064.40
2024-02-19T21:41:48.085Z,99070.60
2024-02-19T21:44:14.630Z,99069.40
2024-02-19T21:46:42.440Z,99064.80
2024-02-19T21:49:09.420Z,99062.80
2024-02-19T21:51:36.060Z,99060.40
2024-02-19T21:54:02.539Z,99064.00
2024-02-19T21:56:29.025Z,99063.80
2024-02-19T21:58:55.793Z,99062.60
2024-02-19T22:01:22.924Z,99067.00
2024-02-19T22:03:50.600Z,99065.60
2024-02-19T22:06:17.728Z,99070.00
2024-02-19T22:08:44.621Z,99066.80
2024-02-19T22:11:11.548Z,99069.20
2024-02-19T22:13:38.181Z,99066.00
2024-02-19T22:16:05.329Z,99069.80
2024-02-19T22:18:31.932Z,99071.40
2024-02-19T22:20:58.424Z,99074.80
2024-02-19T22:23:25.124Z,99066.00
2024-02-19T22:25:51.689Z,99070.20
2024-02-19T22:28:18.349Z,99068.20
2024-02-19T22:30:44.997Z,99070.80
2024-02-19T22:33:11.771Z,99067.20
2024-02-19T22:35:38.405Z,99066.00
2024-02-19T22:38:05.127Z,99063.00
2024-02-19T22:40:33.014Z,99063.40
2024-02-19T22:42:59.943Z,99062.20
2024-02-19T22:45:26.492Z,99067.40
2024-02-19T22:47:53.002Z,99065.80
2024-02-19T22:50:19.588Z,99061.20
2024-02-19T22:52:47.956Z,99070.00
2024-02-19T22:55:12.704Z,99066.60
2024-02-19T22:57:39.341Z,99068.40
2024-02-19T23:00:16.840Z,99074.80
2024-02-19T23:02:43.393Z,99073.60
2024-02-19T23:05:09.933Z,99076.00
2024-02-19T23:07:36.491Z,99077.20
2024-02-19T23:10:03.095Z,99081.40
2024-02-19T23:12:29.596Z,99081.00
2024-02-19T23:14:56.035Z,99082.00
2024-02-19T23:17:22.541Z,99074.40
2024-02-19T23:19:49.166Z,99073.60
2024-02-19T23:22:15.863Z,99072.40
2024-02-19T23:24:42.336Z,99075.60
2024-02-19T23:27:11.378Z,99076.20
2024-02-19T23:29:37.932Z,99075.00
2024-02-19T23:32:04.882Z,99072.20
2024-02-19T23:34:31.735Z,99070.00
2024-02-19T23:36:58.346Z,99070.00
2024-02-19T23:39:24.944Z,99069.40
2024-02-19T23:41:51.491Z,99068.80
2024-02-19T23:44:17.981Z,99069.40
2024-02-19T23:46:45.308Z,99068.20
2024-02-19T23:49:13.196Z,99065.60
2024-02-19T23:51:39.761Z,99064.20
2024-02-19T23:54:07.999Z,99064.80
2024-02-19T23:56:34.475Z,99067.00
2024-02-19T23:59:01.092Z,99063.40
